Time;durP1;ratioP1;P1;durP2;ratioP2;P2;SDS_P1;SDS_P2;PMS_P1;PMS_P2;Temp;Humidity;BMP_temperature;BMP_pressure;BME280_temperature;BME280_humidity;BME280_pressure;Samples;Min_cycle;Max_cycle;Signal;HPM_P1;HPM_P2
2023/04/18 00:01:05;;;;;;;7.40;5.28;;;;;;;10.21;74.83;94229.25;5076248;28;20028;-76
2023/04/18 00:03:30;;;;;;;13.55;5.32;;;;;;;10.31;74.21;94239.66;5092511;28;20028;-76
2023/04/18 00:05:56;;;;;;;6.80;5.10;;;;;;;10.34;74.04;94244.59;5093159;28;20039;-76
2023/04/18 00:08:23;;;;;;;8.00;5.70;;;;;;;10.33;73.68;94233.34;5043043;28;20045;-76
2023/04/18 00:10:48;;;;;;;6.30;5.25;;;;;;;10.22;73.57;94226.53;5071399;28;20494;-76
2023/04/18 00:13:17;;;;;;;7.88;5.28;;;;;;;10.24;73.56;94239.38;5053073;28;20078;-76
2023/04/18 00:15:43;;;;;;;6.70;5.28;;;;;;;10.27;73.97;94232.13;5037005;28;20111;-76
2023/04/18 00:18:09;;;;;;;6.07;4.80;;;;;;;10.20;73.82;94233.63;5071149;28;20089;-76
2023/04/18 00:20:37;;;;;;;7.78;4.75;;;;;;;10.22;74.10;94239.53;5062409;28;20024;-76
2023/04/18 00:23:05;;;;;;;6.43;4.38;;;;;;;10.23;74.49;94238.56;5069639;28;20043;-76
2023/04/18 00:25:30;;;;;;;5.60;4.88;;;;;;;10.19;74.91;94236.34;5070701;28;20498;-76
2023/04/18 00:27:56;;;;;;;6.50;4.88;;;;;;;10.29;75.15;94240.63;5072887;28;20047;-76
2023/04/18 00:30:22;;;;;;;5.28;4.32;;;;;;;10.22;75.20;94223.94;5056322;28;20127;-76
2023/04/18 00:32:47;;;;;;;5.10;4.13;;;;;;;10.24;75.23;94240.19;5079190;28;20066;-76
2023/04/18 00:35:13;;;;;;;5.30;4.32;;;;;;;10.29;74.54;94232.00;5106108;28;20027;-76
2023/04/18 00:37:38;;;;;;;4.72;4.00;;;;;;;10.13;74.97;94222.16;5093098;28;20085;-76
2023/04/18 00:40:04;;;;;;;4.85;4.15;;;;;;;10.12;75.08;94220.53;5093304;28;20088;-76
2023/04/18 00:42:30;;;;;;;5.50;4.47;;;;;;;10.21;75.18;94232.66;5093082;28;20401;-76
2023/04/18 00:44:56;;;;;;;4.70;4.18;;;;;;;10.16;75.50;94234.84;5111294;28;20545;-76
2023/04/18 00:47:21;;;;;;;5.22;4.03;;;;;;;10.14;75.99;94226.41;5058445;28;20039;-76
2023/04/18 00:49:47;;;;;;;5.55;4.10;;;;;;;10.10;75.64;94213.84;5093098;28;20043;-76
2023/04/18 00:52:12;;;;;;;5.10;4.05;;;;;;;10.11;75.69;94223.25;5093263;28;20080;-76
2023/04/18 00:54:41;;;;;;;5.22;4.20;;;;;;;10.13;75.28;94223.94;5093000;28;20035;-76
2023/04/18 00:57:06;;;;;;;6.20;4.10;;;;;;;10.09;75.43;94212.22;5108769;28;20031;-76
2023/04/18 00:59:35;;;;;;;6.35;4.55;;;;;;;10.07;75.42;94220.94;5077765;28;20485;-77
2023/04/18 01:02:03;;;;;;;5.68;4.35;;;;;;;9.94;75.52;94196.22;5079152;28;20020;-77
2023/04/18 01:04:30;;;;;;;5.40;4.32;;;;;;;10.10;75.25;94217.25;5059585;28;20036;-76
2023/04/18 01:06:56;;;;;;;5.80;4.45;;;;;;;10.11;75.45;94221.47;5076343;28;20038;-76
2023/04/18 01:09:22;;;;;;;5.53;4.60;;;;;;;10.07;76.39;94213.16;5094462;28;20483;-76
2023/04/18 01:11:47;;;;;;;4.75;4.25;;;;;;;10.07;76.51;94214.94;5076087;28;20078;-76
2023/04/18 01:14:13;;;;;;;5.20;4.13;;;;;;;10.07;76.26;94212.34;5076139;28;20036;-76
2023/04/18 01:16:38;;;;;;;6.43;4.43;;;;;;;10.01;75.72;94208.53;5076084;28;20028;-77
2023/04/18 01:19:04;;;;;;;5.45;4.25;;;;;;;10.12;75.61;94217.13;5062814;28;20050;-76
2023/04/18 01:21:32;;;;;;;6.32;4.50;;;;;;;9.83;75.47;94185.06;5043934;28;20032;-76
2023/04/18 01:24:07;;;;;;;6.97;4.65;;;;;;;10.06;75.36;94213.31;5039868;28;20106;-76
2023/04/18 01:26:33;;;;;;;5.85;4.30;;;;;;;10.06;75.45;94214.13;5055749;28;20052;-76
2023/04/18 01:28:58;;;;;;;6.28;4.10;;;;;;;10.06;75.51;94215.91;5104807;28;20035;-76
2023/04/18 01:31:24;;;;;;;5.07;3.95;;;;;;;10.11;75.55;94213.69;5062574;28;20031;-76
2023/04/18 01:33:49;;;;;;;4.82;4.10;;;;;;;10.05;76.07;94209.06;5062224;28;20404;-76
2023/04/18 01:36:15;;;;;;;6.65;4.53;;;;;;;9.92;76.23;94190.34;5095696;28;20043;-76
2023/04/18 01:38:40;;;;;;;5.43;4.55;;;;;;;10.06;75.95;94206.34;5095889;28;20077;-76
2023/04/18 01:41:06;;;;;;;5.90;4.80;;;;;;;10.00;76.03;94213.84;5062560;28;20036;-76
2023/04/18 01:43:31;;;;;;;5.30;4.18;;;;;;;9.91;76.04;94193.91;5038798;28;20032;-76
2023/04/18 01:45:57;;;;;;;5.63;4.60;;;;;;;10.00;76.30;94196.53;5030885;28;20036;-76
2023/04/18 01:48:22;;;;;;;6.43;4.93;;;;;;;9.92;76.10;94200.72;5055620;28;20033;-76
2023/04/18 01:50:47;;;;;;;6.00;4.88;;;;;;;9.93;76.14;94202.38;5039082;28;20047;-76
2023/04/18 01:53:13;;;;;;;5.20;4.30;;;;;;;9.95;75.96;94203.88;5046663;28;20028;-76
2023/04/18 01:55:39;;;;;;;6.85;4.80;;;;;;;9.89;76.18;94195.81;5079180;28;20401;-76
2023/04/18 01:58:04;;;;;;;5.35;4.20;;;;;;;9.80;76.44;94190.50;5113847;28;20028;-76
2023/04/18 02:00:29;;;;;;;6.25;4.82;;;;;;;9.87;76.61;94206.34;5095593;28;20088;-76
2023/04/18 02:02:57;;;;;;;5.25;4.25;;;;;;;9.79;77.02;94194.06;5098523;28;20039;-76
2023/04/18 02:05:23;;;;;;;5.65;4.60;;;;;;;9.83;77.68;94205.81;5055181;28;20025;-76
2023/04/18 02:07:49;;;;;;;6.03;4.70;;;;;;;9.79;78.04;94209.63;5040896;28;20167;-76
2023/04/18 02:10:14;;;;;;;6.97;4.95;;;;;;;9.80;78.14;94203.47;5055160;28;20029;-76
2023/04/18 02:12:40;;;;;;;7.93;4.97;;;;;;;9.82;78.46;94206.75;5044887;28;20036;-76
2023/04/18 02:15:06;;;;;;;5.57;4.13;;;;;;;9.82;78.26;94213.72;5073526;28;20030;-76
2023/04/18 02:17:32;;;;;;;6.25;4.97;;;;;;;9.79;78.40;94214.00;5061758;28;20035;-76
2023/04/18 02:19:57;;;;;;;5.90;4.22;;;;;;;9.81;78.49;94215.50;5095157;28;20034;-77
2023/04/18 02:22:23;;;;;;;6.20;5.03;;;;;;;9.77;78.83;94224.50;5094547;28;20027;-76
2023/04/18 02:24:48;;;;;;;7.00;5.15;;;;;;;9.82;78.22;94224.09;5077866;28;20039;-76
2023/04/18 02:27:14;;;;;;;5.45;4.75;;;;;;;9.78;78.33;94214.97;5094258;28;20060;-76
2023/04/18 02:29:39;;;;;;;5.72;4.45;;;;;;;9.87;77.89;94218.50;5074799;28;20028;-76
2023/04/18 02:32:05;;;;;;;6.78;4.90;;;;;;;9.89;77.92;94219.16;5074488;28;20032;-76
2023/04/18 02:34:32;;;;;;;6.10;4.78;;;;;;;9.81;76.95;94202.53;5079995;28;20028;-76
2023/04/18 02:36:58;;;;;;;6.78;5.70;;;;;;;9.83;77.06;94220.53;5112738;28;20477;-77
2023/04/18 02:39:23;;;;;;;6.25;5.28;;;;;;;9.89;76.56;94220.00;5094997;28;20087;-76
2023/04/18 02:41:48;;;;;;;5.40;4.78;;;;;;;9.79;77.24;94211.41;5112657;28;20031;-76
2023/04/18 02:44:14;;;;;;;6.68;5.38;;;;;;;9.82;77.85;94218.91;5076751;28;20035;-76
2023/04/18 02:46:39;;;;;;;5.75;4.72;;;;;;;9.77;77.72;94205.53;5112710;28;20031;-76
2023/04/18 02:49:06;;;;;;;7.35;4.72;;;;;;;9.85;77.48;94211.66;5077706;28;20042;-76
2023/04/18 02:51:31;;;;;;;5.20;4.47;;;;;;;9.88;76.98;94207.97;5081946;28;20039;-76
2023/04/18 02:53:57;;;;;;;6.28;4.93;;;;;;;9.95;77.14;94221.25;5074115;28;20032;-76
2023/04/18 02:56:22;;;;;;;6.38;5.20;;;;;;;9.74;76.87;94198.84;5057504;28;20032;-76
2023/04/18 02:58:48;;;;;;;8.63;5.93;;;;;;;9.91;76.71;94212.88;5091974;28;20028;-76
2023/04/18 03:01:14;;;;;;;8.18;6.13;;;;;;;9.65;76.86;94197.06;5074025;28;20039;-76
2023/04/18 03:03:40;;;;;;;7.95;5.93;;;;;;;9.68;78.01;94229.69;5091809;28;20027;-76
2023/04/18 03:06:05;;;;;;;10.90;7.30;;;;;;;9.65;77.98;94220.41;5075372;28;20031;-76
2023/04/18 03:08:31;;;;;;;9.23;7.40;;;;;;;9.59;78.75;94219.19;5077222;28;20544;-76
2023/04/18 03:10:56;;;;;;;9.43;7.22;;;;;;;9.58;79.03;94222.75;5077263;28;20027;-76
2023/04/18 03:13:21;;;;;;;10.48;7.25;;;;;;;9.59;79.41;94233.94;5077122;28;20031;-76
2023/04/18 03:15:47;;;;;;;8.85;6.75;;;;;;;9.45;79.48;94205.81;5060714;28;20031;-76
2023/04/18 03:18:13;;;;;;;8.77;6.72;;;;;;;9.52;79.51;94214.66;5112148;28;20036;-76
2023/04/18 03:20:39;;;;;;;8.25;6.40;;;;;;;9.63;79.48;94245.66;5060534;28;20029;-76
2023/04/18 03:23:05;;;;;;;7.45;6.32;;;;;;;9.59;79.86;94241.72;5036229;28;20036;-76
2023/04/18 03:25:30;;;;;;;8.90;7.05;;;;;;;9.57;79.79;94246.19;5053416;28;20059;-76
2023/04/18 03:27:56;;;;;;;9.07;6.47;;;;;;;9.60;79.39;94235.56;5054099;28;20043;-77
2023/04/18 03:30:21;;;;;;;9.20;6.88;;;;;;;9.57;80.15;94225.44;5076773;28;20040;-77
2023/04/18 03:32:47;;;;;;;8.57;7.18;;;;;;;9.63;79.96;94236.09;5093597;28;20035;-76
2023/04/18 03:35:13;;;;;;;10.02;7.30;;;;;;;9.55;79.91;94242.91;5093759;28;20114;-76
2023/04/18 03:37:39;;;;;;;8.85;6.90;;;;;;;9.64;79.86;94249.91;5058887;28;20107;-76
2023/04/18 03:40:05;;;;;;;9.20;7.35;;;;;;;9.63;79.94;94248.25;5070192;28;20024;-76
2023/04/18 03:42:30;;;;;;;8.52;6.72;;;;;;;9.59;80.10;94241.72;5056564;28;20039;-77
2023/04/18 03:44:56;;;;;;;9.20;6.70;;;;;;;9.56;80.03;94242.78;5056554;28;20395;-77
2023/04/18 03:47:21;;;;;;;9.13;6.38;;;;;;;9.52;79.79;94254.38;5092428;28;20044;-77
2023/04/18 03:49:46;;;;;;;8.02;6.57;;;;;;;9.57;80.18;94248.78;5076437;28;20034;-76
2023/04/18 03:52:12;;;;;;;7.90;6.53;;;;;;;9.55;80.25;94255.88;5093234;28;20053;-77
2023/04/18 03:54:37;;;;;;;8.20;6.40;;;;;;;9.55;80.16;94248.09;5093022;28;20027;-77
2023/04/18 03:57:03;;;;;;;7.63;6.60;;;;;;;9.57;80.54;94246.19;5081770;28;20506;-77
2023/04/18 03:59:28;;;;;;;7.35;6.03;;;;;;;9.51;80.40;94237.19;5058853;28;20035;-77
2023/04/18 04:01:54;;;;;;;7.95;6.63;;;;;;;9.52;80.35;94250.97;5080440;28;20555;-77
2023/04/18 04:04:20;;;;;;;8.18;6.78;;;;;;;9.50;80.06;94239.91;5036388;28;20033;-77
2023/04/18 04:06:45;;;;;;;8.85;6.82;;;;;;;9.62;80.03;94254.41;5038034;28;20116;-77
2023/04/18 04:09:11;;;;;;;11.43;7.38;;;;;;;9.58;80.23;94258.19;5038123;28;20025;-77
2023/04/18 04:11:36;;;;;;;9.73;7.15;;;;;;;9.61;80.30;94255.34;5068550;28;20048;-77
2023/04/18 04:14:02;;;;;;;8.40;6.47;;;;;;;9.57;80.61;94256.56;5070102;28;20036;-76
2023/04/18 04:16:27;;;;;;;8.45;6.35;;;;;;;9.61;80.65;94257.94;5049695;28;20156;-73
2023/04/18 04:18:53;;;;;;;7.97;6.80;;;;;;;9.64;80.54;94260.28;5055551;28;20417;-77
2023/04/18 04:21:18;;;;;;;11.52;7.80;;;;;;;9.59;80.85;94265.03;5071807;28;20103;-77
2023/04/18 04:23:45;;;;;;;11.50;8.32;;;;;;;9.59;80.94;94257.25;5070348;28;20028;-78
2023/04/18 04:26:10;;;;;;;14.15;11.43;;;;;;;9.69;80.87;94250.28;5046392;28;20518;-77
2023/04/18 04:28:36;;;;;;;14.93;11.43;;;;;;;9.76;80.76;94256.59;5075173;28;20024;-77
2023/04/18 04:31:02;;;;;;;15.00;11.85;;;;;;;9.70;80.74;94256.31;5081684;28;20050;-77
2023/04/18 04:33:27;;;;;;;15.57;12.38;;;;;;;9.83;80.38;94275.00;5055659;28;20055;-78
2023/04/18 04:35:54;;;;;;;16.83;14.50;;;;;;;9.87;80.45;94262.63;5094668;28;20043;-77
2023/04/18 04:38:21;;;;;;;18.10;14.35;;;;;;;10.07;79.76;94264.25;5074512;28;20040;-77
2023/04/18 04:40:48;;;;;;;14.50;12.55;;;;;;;10.10;79.72;94265.75;5076055;28;20035;-77
2023/04/18 04:43:14;;;;;;;14.80;11.68;;;;;;;10.14;79.41;94267.94;5062580;28;20028;-77
2023/04/18 04:45:40;;;;;;;9.60;8.38;;;;;;;10.28;78.67;94277.94;5078002;28;20030;-77
2023/04/18 04:48:06;;;;;;;8.02;7.00;;;;;;;10.24;78.48;94271.31;5055863;28;20424;-77
2023/04/18 04:50:34;;;;;;;7.47;6.03;;;;;;;10.22;78.38;94288.84;5059970;28;20035;-77
2023/04/18 04:52:59;;;;;;;7.35;6.07;;;;;;;10.36;77.71;94276.41;5073831;28;20177;-77
2023/04/18 04:55:25;;;;;;;23.85;14.93;;;;;;;10.31;77.76;94270.81;5071059;28;20405;-77
2023/04/18 04:57:50;;;;;;;38.40;22.98;;;;;;;10.31;78.00;94279.44;5075432;28;20523;-77
2023/04/18 05:00:19;;;;;;;13.70;10.27;;;;;;;10.20;78.10;94259.59;5091772;28;20036;-77
2023/04/18 05:02:46;;;;;;;15.18;12.30;;;;;;;10.38;78.21;94287.47;5057609;28;20043;-77
2023/04/18 05:05:11;;;;;;;18.30;14.25;;;;;;;10.28;77.54;94275.34;5066820;28;20052;-77
2023/04/18 05:07:37;;;;;;;19.58;13.75;;;;;;;10.36;77.61;94291.97;5082796;28;20528;-77
2023/04/18 05:10:03;;;;;;;18.55;13.90;;;;;;;10.11;78.65;94286.34;5066359;28;20513;-77
2023/04/18 05:12:28;;;;;;;17.88;13.43;;;;;;;10.13;78.67;94292.22;5092408;28;20051;-77
2023/04/18 05:14:54;;;;;;;19.02;13.50;;;;;;;10.19;78.48;94293.47;5089040;28;20485;-77
2023/04/18 05:17:19;;;;;;;19.20;14.05;;;;;;;10.17;79.44;94295.38;5072218;28;20034;-77
2023/04/18 05:19:45;;;;;;;18.05;13.38;;;;;;;10.21;79.01;94294.97;5073123;28;20478;-77
2023/04/18 05:22:11;;;;;;;18.80;13.52;;;;;;;10.23;79.37;94298.25;5058461;28;20046;-77
2023/04/18 05:24:36;;;;;;;17.52;13.68;;;;;;;10.27;79.24;94288.44;5057251;28;20060;-77
2023/04/18 05:27:02;;;;;;;18.52;13.60;;;;;;;10.24;78.74;94275.72;5075732;28;20484;-77
2023/04/18 05:29:27;;;;;;;17.70;13.60;;;;;;;10.40;78.56;94285.56;5057593;28;20499;-77
2023/04/18 05:31:54;;;;;;;18.73;14.32;;;;;;;10.47;78.38;94302.22;5057623;28;20104;-77
2023/04/18 05:34:20;;;;;;;19.83;14.18;;;;;;;10.47;78.34;94292.69;5059549;28;20491;-77
2023/04/18 05:36:46;;;;;;;19.92;14.10;;;;;;;10.44;78.78;94285.13;5072184;28;20021;-77
2023/04/18 05:39:12;;;;;;;19.08;14.05;;;;;;;10.54;78.65;94294.72;5058056;28;20032;-77
2023/04/18 05:41:37;;;;;;;19.48;14.55;;;;;;;10.49;78.41;94287.31;5056550;28;20481;-77
2023/04/18 05:44:03;;;;;;;18.42;14.77;;;;;;;10.60;78.26;94297.56;5058167;28;20047;-77
2023/04/18 05:46:29;;;;;;;25.13;16.02;;;;;;;10.64;78.18;94298.09;5088862;28;20426;-77
2023/04/18 05:48:54;;;;;;;19.13;13.73;;;;;;;10.70;77.20;94300.97;5074340;28;20476;-77
2023/04/18 05:51:20;;;;;;;20.77;14.30;;;;;;;10.73;76.76;94305.06;5072747;28;20272;-77
2023/04/18 05:53:45;;;;;;;16.17;12.00;;;;;;;10.80;76.35;94311.31;5090211;28;20017;-77
2023/04/18 05:56:10;;;;;;;13.27;10.38;;;;;;;10.80;75.57;94311.31;5061447;28;20020;-76
2023/04/18 05:58:36;;;;;;;14.02;11.20;;;;;;;10.78;75.02;94315.84;5112907;28;20028;-78
2023/04/18 06:01:01;;;;;;;13.77;10.73;;;;;;;10.78;74.36;94302.03;5051446;28;20058;-78
2023/04/18 06:03:27;;;;;;;13.88;10.60;;;;;;;10.86;73.37;94313.34;5087644;28;20413;-77
2023/04/18 06:05:52;;;;;;;15.13;10.57;;;;;;;10.84;73.38;94296.28;5092853;28;20038;-78
2023/04/18 06:08:18;;;;;;;16.38;11.10;;;;;;;10.93;72.97;94309.25;5086322;28;20036;-80
2023/04/18 06:10:43;;;;;;;12.88;10.10;;;;;;;11.07;71.14;94314.94;5103292;28;20113;-79
2023/04/18 06:13:09;;;;;;;14.98;10.40;;;;;;;11.11;71.14;94311.91;5073649;28;20437;-79
2023/04/18 06:15:34;;;;;;;12.25;9.68;;;;;;;11.01;70.65;94292.94;5064341;28;20063;-79
2023/04/18 06:18:00;;;;;;;14.18;9.88;;;;;;;11.20;70.46;94310.25;5064896;28;20032;-80
2023/04/18 06:20:26;;;;;;;13.93;10.13;;;;;;;11.10;70.31;94293.88;5053105;28;20483;-79
2023/04/18 06:22:51;;;;;;;11.10;8.38;;;;;;;11.15;69.86;94295.06;5057020;28;20020;-78
2023/04/18 06:25:17;;;;;;;12.48;9.32;;;;;;;11.23;69.38;94303.91;5061190;28;20035;-80
2023/04/18 06:27:42;;;;;;;15.23;10.70;;;;;;;11.20;70.34;94299.84;5053754;28;20170;-80
2023/04/18 06:30:08;;;;;;;14.75;10.52;;;;;;;11.31;70.34;94304.03;5052637;28;20509;-79
2023/04/18 06:32:33;;;;;;;17.52;13.02;;;;;;;11.36;70.05;94313.03;5040707;28;20024;-78
2023/04/18 06:34:59;;;;;;;16.02;11.80;;;;;;;11.30;70.61;94315.41;5092546;28;20036;-79
2023/04/18 06:37:24;;;;;;;14.73;11.70;;;;;;;11.28;71.08;94281.75;5075595;28;20478;-79
2023/04/18 06:39:50;;;;;;;13.20;9.65;;;;;;;11.36;70.56;94312.22;5075584;28;20047;-79
2023/04/18 06:42:15;;;;;;;15.82;11.77;;;;;;;11.18;70.47;94283.56;5075911;28;20023;-79
2023/04/18 06:44:42;;;;;;;19.50;13.23;;;;;;;11.32;71.14;94303.09;5094974;28;20035;-79
2023/04/18 06:47:08;;;;;;;11.13;8.85;;;;;;;11.22;70.65;94325.69;5078151;28;20492;-79
2023/04/18 06:49:33;;;;;;;12.50;9.93;;;;;;;11.15;71.25;94308.06;5094646;28;20035;-79
2023/04/18 06:51:58;;;;;;;12.00;9.40;;;;;;;11.10;70.36;94319.84;5060922;28;20027;-79
2023/04/18 06:54:24;;;;;;;10.25;8.65;;;;;;;11.08;70.40;94316.56;5112542;28;20035;-79
2023/04/18 06:56:50;;;;;;;12.10;9.02;;;;;;;11.07;69.67;94297.56;5059652;28;20051;-79
2023/04/18 06:59:15;;;;;;;11.05;8.50;;;;;;;11.12;69.30;94303.16;5077342;28;20031;-79
2023/04/18 07:01:41;;;;;;;10.20;7.50;;;;;;;11.17;68.08;94298.34;5094082;28;20401;-79
2023/04/18 07:04:06;;;;;;;10.35;7.88;;;;;;;11.47;67.49;94317.22;5077126;28;20050;-79
2023/04/18 07:06:33;;;;;;;11.40;7.97;;;;;;;11.40;67.97;94316.19;5093901;28;20520;-79
2023/04/18 07:09:00;;;;;;;11.85;7.97;;;;;;;11.60;68.14;94317.72;5093981;28;20091;-79
2023/04/18 07:11:26;;;;;;;10.30;7.80;;;;;;;11.71;66.93;94319.31;5093740;28;20016;-79
2023/04/18 07:13:51;;;;;;;10.05;8.40;;;;;;;11.83;66.16;94317.31;5076880;28;20469;-79
2023/04/18 07:16:17;;;;;;;10.10;7.47;;;;;;;11.90;65.23;94308.00;5060219;28;20092;-79
2023/04/18 07:18:42;;;;;;;8.65;6.72;;;;;;;12.01;63.77;94307.78;5093852;28;20031;-79
2023/04/18 07:21:08;;;;;;;9.32;7.30;;;;;;;12.13;63.96;94303.16;5093776;28;20019;-79
2023/04/18 07:23:34;;;;;;;8.88;7.13;;;;;;;12.25;62.88;94307.16;5093663;28;20409;-79
2023/04/18 07:26:01;;;;;;;9.23;7.00;;;;;;;12.13;62.65;94302.34;5093596;28;20115;-79
2023/04/18 07:28:27;;;;;;;8.73;6.72;;;;;;;12.22;62.60;94320.50;5077304;28;20413;-78
2023/04/18 07:30:54;;;;;;;9.63;6.88;;;;;;;12.31;62.31;94308.34;5059764;28;20126;-79
2023/04/18 07:33:19;;;;;;;9.88;7.40;;;;;;;12.43;61.98;94307.19;5093763;28;20026;-79
2023/04/18 07:35:45;;;;;;;8.65;6.95;;;;;;;12.41;60.64;94306.50;5060029;28;20028;-79
2023/04/18 07:38:11;;;;;;;8.27;6.80;;;;;;;12.50;61.78;94313.41;5093522;28;20028;-78
2023/04/18 07:40:37;;;;;;;8.50;6.57;;;;;;;12.56;59.04;94293.75;5093600;28;20039;-79
2023/04/18 07:43:02;;;;;;;8.70;6.85;;;;;;;12.58;59.76;94299.63;5076675;28;20035;-75
2023/04/18 07:45:28;;;;;;;10.30;7.13;;;;;;;12.77;59.19;94313.44;5093189;28;20062;-74
2023/04/18 07:47:53;;;;;;;9.57;6.78;;;;;;;12.79;59.42;94309.72;5093310;28;20155;-74
2023/04/18 07:50:19;;;;;;;8.05;6.50;;;;;;;12.85;58.43;94311.72;5093443;28;20035;-74
2023/04/18 07:52:46;;;;;;;11.25;7.32;;;;;;;12.97;58.24;94323.50;5093325;28;20039;-74
2023/04/18 07:55:13;;;;;;;8.32;6.13;;;;;;;13.09;57.40;94325.88;5093729;28;20035;-75
2023/04/18 07:57:41;;;;;;;9.20;6.30;;;;;;;13.06;57.21;94323.56;5093303;28;20020;-74
2023/04/18 08:00:07;;;;;;;7.88;6.38;;;;;;;13.13;56.69;94320.19;5093339;28;20031;-78
2023/04/18 08:02:32;;;;;;;10.77;7.45;;;;;;;13.14;58.27;94326.22;5076571;28;20068;-79
2023/04/18 08:04:58;;;;;;;8.15;6.15;;;;;;;13.18;57.61;94324.97;5093246;28;20404;-79
2023/04/18 08:07:23;;;;;;;8.02;6.00;;;;;;;13.17;56.63;94324.13;5093003;28;20024;-79
2023/04/18 08:09:49;;;;;;;8.15;6.10;;;;;;;13.22;56.33;94330.69;5093153;28;20040;-79
2023/04/18 08:12:14;;;;;;;9.48;6.60;;;;;;;13.18;56.03;94304.09;5093190;28;20031;-78
2023/04/18 08:14:40;;;;;;;11.88;7.45;;;;;;;13.17;55.64;94308.47;5076437;28;20050;-78
2023/04/18 08:17:06;;;;;;;15.38;8.32;;;;;;;13.19;56.24;94326.59;5076380;28;20038;-79
2023/04/18 08:19:31;;;;;;;9.07;5.95;;;;;;;13.12;55.76;94313.34;5093147;28;20040;-78
2023/04/18 08:22:06;;;;;;;6.88;5.45;;;;;;;13.24;54.55;94329.56;5092981;28;20532;-79
2023/04/18 08:24:31;;;;;;;6.57;5.03;;;;;;;13.14;54.96;94339.25;5076287;28;20066;-78
2023/04/18 08:26:57;;;;;;;6.13;4.53;;;;;;;12.73;54.86;94312.91;5092761;28;20047;-79
2023/04/18 08:29:22;;;;;;;5.80;4.90;;;;;;;12.47;55.77;94294.66;5093023;28;20043;-78
2023/04/18 08:31:48;;;;;;;5.70;4.57;;;;;;;12.41;56.16;94339.56;5092972;28;20027;-78
2023/04/18 08:34:13;;;;;;;6.45;4.88;;;;;;;12.48;56.83;94338.81;5111164;28;20036;-78
2023/04/18 08:36:39;;;;;;;7.65;5.40;;;;;;;12.62;56.68;94334.00;5092888;28;20062;-78
2023/04/18 08:39:05;;;;;;;6.60;4.85;;;;;;;12.53;56.13;94325.31;5076152;28;20031;-78
2023/04/18 08:41:30;;;;;;;7.55;5.10;;;;;;;12.51;55.63;94320.28;5093143;28;20023;-78
2023/04/18 08:43:56;;;;;;;7.25;5.05;;;;;;;12.57;56.02;94311.03;5076094;28;20092;-78
2023/04/18 08:46:21;;;;;;;7.35;5.60;;;;;;;12.69;55.67;94315.03;5092808;28;20020;-78
2023/04/18 08:48:48;;;;;;;6.10;4.85;;;;;;;12.66;54.90;94304.91;5076013;28;20428;-78
2023/04/18 08:51:14;;;;;;;5.55;4.75;;;;;;;12.88;54.08;94319.22;5059236;28;20118;-78
2023/04/18 08:53:40;;;;;;;11.82;9.35;;;;;;;12.86;53.95;94312.53;5110861;28;20409;-78
2023/04/18 08:56:09;;;;;;;5.75;4.28;;;;;;;12.85;53.61;94324.75;5080578;28;20070;-79
2023/04/18 08:58:34;;;;;;;6.47;4.65;;;;;;;12.81;54.77;94328.63;5072210;28;20055;-78
2023/04/18 09:01:00;;;;;;;7.55;5.40;;;;;;;12.97;55.95;94322.69;5072355;28;20051;-79
2023/04/18 09:03:38;;;;;;;7.57;5.88;;;;;;;13.17;55.44;94318.09;5055933;28;20023;-78
2023/04/18 09:06:07;;;;;;;9.85;7.38;;;;;;;13.15;56.33;94315.66;5089461;28;20123;-78
2023/04/18 09:08:34;;;;;;;9.70;7.13;;;;;;;13.40;56.00;94321.03;5072282;28;20129;-79
2023/04/18 09:11:27;;;;;;;8.35;6.63;;;;;;;13.44;54.96;94305.88;5090172;28;20024;-78
2023/04/18 09:13:55;;;;;;;8.88;6.82;;;;;;;13.65;55.33;94316.72;5072554;28;20032;-78
2023/04/18 09:16:21;;;;;;;9.10;7.30;;;;;;;13.77;55.06;94327.69;5055902;28;20032;-78
2023/04/18 09:19:12;;;;;;;7.03;5.78;;;;;;;13.86;53.95;94329.34;5072421;28;20028;-79
2023/04/18 09:21:39;;;;;;;9.38;7.25;;;;;;;13.56;54.10;94296.78;5058614;28;20036;-79
2023/04/18 09:24:25;;;;;;;13.13;8.15;;;;;;;13.61;54.24;94287.50;5075788;28;20040;-79
2023/04/18 09:26:53;;;;;;;6.75;5.53;;;;;;;13.81;52.91;94327.19;5093667;28;20083;-79
2023/04/18 09:29:21;;;;;;;6.57;5.50;;;;;;;13.57;53.18;94327.13;5059669;28;20036;-79
2023/04/18 09:31:53;;;;;;;7.40;5.03;;;;;;;13.52;52.70;94324.19;5059833;28;20023;-79
2023/04/18 09:34:19;;;;;;;6.47;5.10;;;;;;;13.41;52.83;94330.47;5058930;28;20485;-79
2023/04/18 09:36:45;;;;;;;7.50;5.68;;;;;;;13.42;53.47;94319.06;5058923;28;20051;-79
2023/04/18 09:39:11;;;;;;;7.43;5.90;;;;;;;13.44;53.26;94324.13;5058928;28;20524;-79
2023/04/18 09:41:36;;;;;;;8.30;5.68;;;;;;;13.48;53.44;94325.44;5058680;28;20024;-79
2023/04/18 09:44:10;;;;;;;10.50;8.80;;;;;;;13.47;54.36;94318.59;5058655;28;20101;-79
2023/04/18 09:46:35;;;;;;;6.13;4.93;;;;;;;13.25;53.47;94318.13;5058667;28;20409;-79
2023/04/18 09:49:01;;;;;;;8.20;6.30;;;;;;;13.07;54.41;94305.16;5058637;28;20126;-79
2023/04/18 09:51:26;;;;;;;7.28;5.57;;;;;;;13.14;54.18;94313.19;5058861;28;20024;-79
2023/04/18 09:53:52;;;;;;;7.75;6.60;;;;;;;13.14;54.83;94318.41;5093272;28;20028;-79
2023/04/18 09:56:24;;;;;;;13.38;11.50;;;;;;;13.22;54.80;94304.59;5058403;28;20047;-78
2023/04/18 09:58:54;;;;;;;9.32;7.32;;;;;;;13.30;54.31;94308.09;5058712;28;20080;-79
2023/04/18 10:01:20;;;;;;;10.65;7.70;;;;;;;13.48;54.02;94312.41;5059534;28;20028;-79
2023/04/18 10:03:46;;;;;;;11.10;9.10;;;;;;;13.37;53.98;94290.00;5041911;28;20558;-79
2023/04/18 10:06:14;;;;;;;5.88;4.95;;;;;;;13.26;53.92;94314.59;5058338;28;20058;-79
2023/04/18 10:08:40;;;;;;;6.47;5.32;;;;;;;13.12;54.61;94302.94;5041913;28;20044;-79
2023/04/18 10:11:05;;;;;;;7.03;5.22;;;;;;;13.24;53.46;94300.84;5074831;28;20067;-79
2023/04/18 10:13:31;;;;;;;6.13;5.03;;;;;;;13.31;53.16;94319.34;5058179;28;20513;-79
2023/04/18 10:15:56;;;;;;;5.88;4.88;;;;;;;13.13;53.77;94299.34;5058097;28;20028;-79
2023/04/18 10:18:22;;;;;;;6.75;5.78;;;;;;;13.37;53.37;94311.72;5058256;28;20038;-79
2023/04/18 10:20:48;;;;;;;7.38;6.05;;;;;;;13.52;53.85;94311.13;5041508;28;20032;-79
2023/04/18 10:23:34;;;;;;;7.60;6.13;;;;;;;13.73;53.39;94303.69;5074785;28;20024;-79
2023/04/18 10:26:00;;;;;;;6.03;5.25;;;;;;;14.03;53.60;94299.69;5074442;28;20056;-79
2023/04/18 10:28:27;;;;;;;5.75;4.80;;;;;;;14.08;52.76;94286.16;5074627;28;20111;-79
2023/04/18 10:31:02;;;;;;;6.93;4.97;;;;;;;14.31;52.24;94302.81;5058188;28;20039;-79
2023/04/18 10:33:33;;;;;;;7.97;5.93;;;;;;;14.51;52.26;94289.44;5074579;28;20413;-79
2023/04/18 10:36:08;;;;;;;6.88;5.60;;;;;;;14.57;50.72;94296.69;5058513;28;20047;-79
2023/04/18 10:38:43;;;;;;;8.10;6.50;;;;;;;14.56;50.30;94288.97;5074398;28;20326;-79
2023/04/18 10:41:25;;;;;;;5.85;4.43;;;;;;;14.51;50.39;94292.88;5075917;28;20047;-79
2023/04/18 10:44:09;;;;;;;6.72;5.05;;;;;;;14.80;50.84;94285.53;5057639;28;20028;-79
2023/04/18 10:46:38;;;;;;;12.35;8.55;;;;;;;14.88;50.62;94283.72;5073988;28;20124;-79
2023/04/18 10:49:23;;;;;;;11.10;8.00;;;;;;;15.01;50.74;94293.66;5074272;28;20036;-79
2023/04/18 10:51:53;;;;;;;7.40;4.78;;;;;;;15.16;48.74;94291.19;5074137;28;20064;-79
2023/04/18 10:54:31;;;;;;;7.18;5.30;;;;;;;15.15;49.49;94284.31;5057498;28;20417;-79
2023/04/18 10:56:58;;;;;;;8.30;5.40;;;;;;;15.12;49.20;94285.47;5058568;28;20028;-79
2023/04/18 10:59:25;;;;;;;7.10;5.20;;;;;;;15.09;49.78;94283.19;5040937;28;20032;-79
2023/04/18 11:02:17;;;;;;;8.82;6.72;;;;;;;15.11;49.96;94283.03;5057673;28;20405;-79
2023/04/18 11:04:48;;;;;;;9.25;6.82;;;;;;;15.17;49.68;94282.34;5036048;28;20044;-79
2023/04/18 11:07:13;;;;;;;4.07;3.40;;;;;;;14.86;49.47;94284.88;5057729;28;20110;-79
2023/04/18 11:09:39;;;;;;;4.88;3.63;;;;;;;14.77;49.53;94276.22;5073814;28;20043;-79
2023/04/18 11:12:07;;;;;;;5.10;3.53;;;;;;;15.01;49.63;94267.50;5040364;28;20024;-80
2023/04/18 11:14:42;;;;;;;5.95;4.55;;;;;;;14.90;50.60;94270.47;5057051;28;20618;-77
2023/04/18 11:17:34;;;;;;;7.13;5.13;;;;;;;14.99;50.34;94269.50;5073616;28;20497;-80
2023/04/18 11:20:10;;;;;;;3.42;2.83;;;;;;;14.88;48.93;94268.03;5058655;28;20035;-80
2023/04/18 11:22:45;;;;;;;4.05;3.10;;;;;;;14.67;49.47;94265.94;5073649;28;20074;-81
2023/04/18 11:25:11;;;;;;;4.28;3.00;;;;;;;14.35;50.95;94219.72;5056674;28;20036;-81
2023/04/18 11:27:36;;;;;;;4.50;3.30;;;;;;;14.70;51.42;94262.97;5073682;28;20035;-80
2023/04/18 11:30:02;;;;;;;4.82;3.92;;;;;;;14.84;50.97;94266.72;5056839;28;20032;-81